sensor_id;sensor_type;location;lat;lon;timestamp;temperature;humidity
63013;DHT22;62113;45.624;11.700;2023-03-20T00:02:48;14.00;66.40
63013;DHT22;62113;45.624;11.700;2023-03-20T00:05:16;13.90;66.40
63013;DHT22;62113;45.624;11.700;2023-03-20T00:07:43;13.90;66.30
63013;DHT22;62113;45.624;11.700;2023-03-20T00:10:09;14.00;66.30
63013;DHT22;62113;45.624;11.700;2023-03-20T00:12:36;14.00;66.40
63013;DHT22;62113;45.624;11.700;2023-03-20T00:15:04;14.00;66.40
63013;DHT22;62113;45.624;11.700;2023-03-20T00:17:31;14.00;66.30
63013;DHT22;62113;45.624;11.700;2023-03-20T00:19:56;14.00;66.50
63013;DHT22;62113;45.624;11.700;2023-03-20T00:22:22;14.00;66.60
63013;DHT22;62113;45.624;11.700;2023-03-20T00:24:47;14.00;66.60
63013;DHT22;62113;45.624;11.700;2023-03-20T00:27:15;14.00;66.50
63013;DHT22;62113;45.624;11.700;2023-03-20T00:29:41;14.00;66.50
63013;DHT22;62113;45.624;11.700;2023-03-20T00:32:13;14.00;66.50
63013;DHT22;62113;45.624;11.700;2023-03-20T00:34:39;14.00;66.50
63013;DHT22;62113;45.624;11.700;2023-03-20T00:37:05;14.00;66.50
63013;DHT22;62113;45.624;11.700;2023-03-20T00:39:30;14.00;66.50
63013;DHT22;62113;45.624;11.700;2023-03-20T00:41:59;13.90;66.50
63013;DHT22;62113;45.624;11.700;2023-03-20T00:44:36;13.90;66.50
63013;DHT22;62113;45.624;11.700;2023-03-20T00:47:17;13.90;66.50
63013;DHT22;62113;45.624;11.700;2023-03-20T00:49:46;13.90;66.50
63013;DHT22;62113;45.624;11.700;2023-03-20T00:52:12;13.90;66.60
63013;DHT22;62113;45.624;11.700;2023-03-20T00:54:39;13.90;66.60
63013;DHT22;62113;45.624;11.700;2023-03-20T00:57:11;13.90;66.70
63013;DHT22;62113;45.624;11.700;2023-03-20T01:00:34;13.80;66.60
63013;DHT22;62113;45.624;11.700;2023-03-20T01:02:34;13.80;66.70
63013;DHT22;62113;45.624;11.700;2023-03-20T01:05:00;13.80;66.60
63013;DHT22;62113;45.624;11.700;2023-03-20T01:07:28;13.80;66.70
63013;DHT22;62113;45.624;11.700;2023-03-20T01:09:53;13.80;66.70
63013;DHT22;62113;45.624;11.700;2023-03-20T01:12:19;13.70;66.80
63013;DHT22;62113;45.624;11.700;2023-03-20T01:14:54;13.70;66.80
63013;DHT22;62113;45.624;11.700;2023-03-20T01:17:22;13.70;66.80
63013;DHT22;62113;45.624;11.700;2023-03-20T01:19:49;13.70;66.80
63013;DHT22;62113;45.624;11.700;2023-03-20T01:22:15;13.70;66.70
63013;DHT22;62113;45.624;11.700;2023-03-20T01:24:42;13.70;66.90
63013;DHT22;62113;45.624;11.700;2023-03-20T01:27:16;13.60;66.80
63013;DHT22;62113;45.624;11.700;2023-03-20T01:29:42;13.60;66.90
63013;DHT22;62113;45.624;11.700;2023-03-20T01:32:14;13.60;66.90
63013;DHT22;62113;45.624;11.700;2023-03-20T01:34:40;13.60;67.00
63013;DHT22;62113;45.624;11.700;2023-03-20T01:37:13;13.60;67.00
63013;DHT22;62113;45.624;11.700;2023-03-20T01:39:40;13.60;66.90
63013;DHT22;62113;45.624;11.700;2023-03-20T01:42:07;13.50;66.90
63013;DHT22;62113;45.624;11.700;2023-03-20T01:44:34;13.60;67.00
63013;DHT22;62113;45.624;11.700;2023-03-20T01:47:04;13.60;67.10
63013;DHT22;62113;45.624;11.700;2023-03-20T01:52:33;13.60;67.00
63013;DHT22;62113;45.624;11.700;2023-03-20T01:54:59;13.60;66.90
63013;DHT22;62113;45.624;11.700;2023-03-20T01:57:25;13.50;67.00
63013;DHT22;62113;45.624;11.700;2023-03-20T01:59:55;13.50;67.00
63013;DHT22;62113;45.624;11.700;2023-03-20T02:02:25;13.50;67.00
63013;DHT22;62113;45.624;11.700;2023-03-20T02:05:03;13.50;67.00
63013;DHT22;62113;45.624;11.700;2023-03-20T02:07:32;13.60;67.10
63013;DHT22;62113;45.624;11.700;2023-03-20T02:10:00;13.50;67.10
63013;DHT22;62113;45.624;11.700;2023-03-20T02:12:27;13.50;67.10
63013;DHT22;62113;45.624;11.700;2023-03-20T02:14:52;13.50;67.10
63013;DHT22;62113;45.624;11.700;2023-03-20T02:17:18;13.50;67.10
63013;DHT22;62113;45.624;11.700;2023-03-20T02:25:58;13.50;67.10
63013;DHT22;62113;45.624;11.700;2023-03-20T02:38:52;13.50;67.10
63013;DHT22;62113;45.624;11.700;2023-03-20T02:52:32;13.50;67.30
63013;DHT22;62113;45.624;11.700;2023-03-20T02:55:23;13.40;67.20
63013;DHT22;62113;45.624;11.700;2023-03-20T03:00:33;13.30;67.40
63013;DHT22;62113;45.624;11.700;2023-03-20T03:05:55;13.20;67.80
63013;DHT22;62113;45.624;11.700;2023-03-20T03:08:21;13.00;68.00
63013;DHT22;62113;45.624;11.700;2023-03-20T03:10:52;13.00;68.50
63013;DHT22;62113;45.624;11.700;2023-03-20T03:13:26;13.00;68.70
63013;DHT22;62113;45.624;11.700;2023-03-20T03:15:55;12.90;68.80
63013;DHT22;62113;45.624;11.700;2023-03-20T03:18:27;13.00;69.00
63013;DHT22;62113;45.624;11.700;2023-03-20T03:20:57;13.00;68.90
63013;DHT22;62113;45.624;11.700;2023-03-20T03:23:34;13.00;68.90
63013;DHT22;62113;45.624;11.700;2023-03-20T03:26:01;13.10;68.80
63013;DHT22;62113;45.624;11.700;2023-03-20T03:28:32;13.10;68.70
63013;DHT22;62113;45.624;11.700;2023-03-20T03:31:10;13.10;68.70
63013;DHT22;62113;45.624;11.700;2023-03-20T03:33:38;13.00;69.00
63013;DHT22;62113;45.624;11.700;2023-03-20T03:38:59;12.90;69.10
63013;DHT22;62113;45.624;11.700;2023-03-20T03:41:39;12.90;69.00
63013;DHT22;62113;45.624;11.700;2023-03-20T03:49:30;13.10;68.80
63013;DHT22;62113;45.624;11.700;2023-03-20T03:52:01;13.10;68.70
63013;DHT22;62113;45.624;11.700;2023-03-20T03:54:41;13.10;68.70
63013;DHT22;62113;45.624;11.700;2023-03-20T03:57:08;13.20;68.60
63013;DHT22;62113;45.624;11.700;2023-03-20T03:59:37;13.20;68.60
63013;DHT22;62113;45.624;11.700;2023-03-20T04:02:06;13.20;68.60
63013;DHT22;62113;45.624;11.700;2023-03-20T04:04:36;13.20;68.50
63013;DHT22;62113;45.624;11.700;2023-03-20T04:07:04;13.20;68.40
63013;DHT22;62113;45.624;11.700;2023-03-20T04:09:29;13.20;68.30
63013;DHT22;62113;45.624;11.700;2023-03-20T04:11:55;13.20;68.30
63013;DHT22;62113;45.624;11.700;2023-03-20T04:14:21;13.20;68.20
63013;DHT22;62113;45.624;11.700;2023-03-20T04:16:46;13.20;68.20
63013;DHT22;62113;45.624;11.700;2023-03-20T04:19:12;13.20;68.20
63013;DHT22;62113;45.624;11.700;2023-03-20T04:21:38;13.20;68.20
63013;DHT22;62113;45.624;11.700;2023-03-20T04:24:03;13.20;68.20
63013;DHT22;62113;45.624;11.700;2023-03-20T04:26:29;13.20;68.10
63013;DHT22;62113;45.624;11.700;2023-03-20T04:28:55;13.20;68.10
63013;DHT22;62113;45.624;11.700;2023-03-20T04:31:20;13.20;68.00
63013;DHT22;62113;45.624;11.700;2023-03-20T04:33:46;13.20;68.00
63013;DHT22;62113;45.624;11.700;2023-03-20T04:36:12;13.20;68.00
63013;DHT22;62113;45.624;11.700;2023-03-20T04:38:38;13.10;68.00
63013;DHT22;62113;45.624;11.700;2023-03-20T04:41:04;13.10;67.90
63013;DHT22;62113;45.624;11.700;2023-03-20T04:43:30;13.10;67.90
63013;DHT22;62113;45.624;11.700;2023-03-20T04:45:56;13.00;67.80
63013;DHT22;62113;45.624;11.700;2023-03-20T04:48:22;13.10;67.80
63013;DHT22;62113;45.624;11.700;2023-03-20T04:50:48;13.10;67.80
63013;DHT22;62113;45.624;11.700;2023-03-20T04:53:15;13.00;67.80
63013;DHT22;62113;45.624;11.700;2023-03-20T04:55:41;13.00;67.70
63013;DHT22;62113;45.624;11.700;2023-03-20T04:58:07;13.00;67.70
63013;DHT22;62113;45.624;11.700;2023-03-20T05:00:32;13.00;67.70
63013;DHT22;62113;45.624;11.700;2023-03-20T05:02:58;13.00;67.60
63013;DHT22;62113;45.624;11.700;2023-03-20T05:05:24;12.90;67.60
63013;DHT22;62113;45.624;11.700;2023-03-20T05:07:50;12.90;67.50
63013;DHT22;62113;45.624;11.700;2023-03-20T05:10:16;12.90;67.50
63013;DHT22;62113;45.624;11.700;2023-03-20T05:12:42;12.90;67.40
63013;DHT22;62113;45.624;11.700;2023-03-20T05:15:08;12.80;67.40
63013;DHT22;62113;45.624;11.700;2023-03-20T05:17:33;12.80;67.40
63013;DHT22;62113;45.624;11.700;2023-03-20T05:19:59;12.80;67.30
63013;DHT22;62113;45.624;11.700;2023-03-20T05:22:25;12.80;67.30
63013;DHT22;62113;45.624;11.700;2023-03-20T05:24:50;12.80;67.20
63013;DHT22;62113;45.624;11.700;2023-03-20T05:27:16;12.80;67.20
63013;DHT22;62113;45.624;11.700;2023-03-20T05:29:42;12.70;67.10
63013;DHT22;62113;45.624;11.700;2023-03-20T05:32:08;12.70;67.00
63013;DHT22;62113;45.624;11.700;2023-03-20T05:34:33;12.70;66.90
63013;DHT22;62113;45.624;11.700;2023-03-20T05:36:59;12.70;66.90
63013;DHT22;62113;45.624;11.700;2023-03-20T05:39:24;12.70;66.90
63013;DHT22;62113;45.624;11.700;2023-03-20T05:41:50;12.70;66.90
63013;DHT22;62113;45.624;11.700;2023-03-20T05:44:16;12.70;66.90
63013;DHT22;62113;45.624;11.700;2023-03-20T05:46:42;12.70;66.90
63013;DHT22;62113;45.624;11.700;2023-03-20T05:49:07;12.80;66.80
63013;DHT22;62113;45.624;11.700;2023-03-20T05:51:33;12.80;66.80
63013;DHT22;62113;45.624;11.700;2023-03-20T05:53:58;12.80;66.80
63013;DHT22;62113;45.624;11.700;2023-03-20T05:56:24;12.90;66.70
63013;DHT22;62113;45.624;11.700;2023-03-20T05:58:50;12.90;66.70
63013;DHT22;62113;45.624;11.700;2023-03-20T06:01:16;12.90;66.60
63013;DHT22;62113;45.624;11.700;2023-03-20T06:03:49;12.90;66.50
63013;DHT22;62113;45.624;11.700;2023-03-20T06:06:16;13.00;66.50
63013;DHT22;62113;45.624;11.700;2023-03-20T06:08:42;13.00;66.40
63013;DHT22;62113;45.624;11.700;2023-03-20T06:11:08;13.10;66.40
63013;DHT22;62113;45.624;11.700;2023-03-20T06:13:34;13.10;66.50
63013;DHT22;62113;45.624;11.700;2023-03-20T06:16:00;13.20;66.30
63013;DHT22;62113;45.624;11.700;2023-03-20T06:18:26;13.20;66.20
63013;DHT22;62113;45.624;11.700;2023-03-20T06:20:53;13.30;66.20
63013;DHT22;62113;45.624;11.700;2023-03-20T06:23:19;13.30;66.00
63013;DHT22;62113;45.624;11.700;2023-03-20T06:25:45;13.30;65.90
63013;DHT22;62113;45.624;11.700;2023-03-20T06:28:10;13.40;65.70
63013;DHT22;62113;45.624;11.700;2023-03-20T06:30:36;13.40;65.60
63013;DHT22;62113;45.624;11.700;2023-03-20T06:33:02;13.50;65.40
63013;DHT22;62113;45.624;11.700;2023-03-20T06:35:28;13.60;65.40
63013;DHT22;62113;45.624;11.700;2023-03-20T06:37:56;13.70;65.40
63013;DHT22;62113;45.624;11.700;2023-03-20T06:40:22;13.80;65.20
63013;DHT22;62113;45.624;11.700;2023-03-20T06:42:48;14.00;65.10
63013;DHT22;62113;45.624;11.700;2023-03-20T06:45:14;14.20;64.70
63013;DHT22;62113;45.624;11.700;2023-03-20T06:47:40;14.30;64.20
63013;DHT22;62113;45.624;11.700;2023-03-20T06:50:06;14.50;63.80
63013;DHT22;62113;45.624;11.700;2023-03-20T06:52:32;14.50;63.40
63013;DHT22;62113;45.624;11.700;2023-03-20T06:54:58;14.60;63.20
63013;DHT22;62113;45.624;11.700;2023-03-20T06:57:23;14.60;63.10
63013;DHT22;62113;45.624;11.700;2023-03-20T06:59:49;14.60;62.90
63013;DHT22;62113;45.624;11.700;2023-03-20T07:02:15;14.60;62.80
63013;DHT22;62113;45.624;11.700;2023-03-20T07:04:41;14.50;62.70
63013;DHT22;62113;45.624;11.700;2023-03-20T07:07:07;14.50;62.70
63013;DHT22;62113;45.624;11.700;2023-03-20T07:09:32;14.40;62.60
63013;DHT22;62113;45.624;11.700;2023-03-20T07:11:58;14.40;62.70
63013;DHT22;62113;45.624;11.700;2023-03-20T07:14:24;14.30;62.80
63013;DHT22;62113;45.624;11.700;2023-03-20T07:16:50;14.20;62.80
63013;DHT22;62113;45.624;11.700;2023-03-20T07:19:16;14.20;63.00
63013;DHT22;62113;45.624;11.700;2023-03-20T07:21:43;14.30;63.20
63013;DHT22;62113;45.624;11.700;2023-03-20T07:24:09;14.30;63.10
63013;DHT22;62113;45.624;11.700;2023-03-20T07:26:35;14.40;63.10
63013;DHT22;62113;45.624;11.700;2023-03-20T07:29:01;14.50;63.10
63013;DHT22;62113;45.624;11.700;2023-03-20T07:31:27;14.70;63.20
63013;DHT22;62113;45.624;11.700;2023-03-20T07:33:54;14.90;63.00
63013;DHT22;62113;45.624;11.700;2023-03-20T07:36:19;15.20;62.90
63013;DHT22;62113;45.624;11.700;2023-03-20T07:38:45;15.70;62.50
63013;DHT22;62113;45.624;11.700;2023-03-20T07:41:11;16.10;61.90
63013;DHT22;62113;45.624;11.700;2023-03-20T07:43:37;16.40;60.60
63013;DHT22;62113;45.624;11.700;2023-03-20T07:46:07;16.70;59.70
63013;DHT22;62113;45.624;11.700;2023-03-20T07:48:34;17.00;59.10
63013;DHT22;62113;45.624;11.700;2023-03-20T07:51:00;17.20;58.30
63013;DHT22;62113;45.624;11.700;2023-03-20T07:53:26;17.40;57.00
63013;DHT22;62113;45.624;11.700;2023-03-20T07:55:52;17.70;56.60
63013;DHT22;62113;45.624;11.700;2023-03-20T07:58:18;17.80;56.30
63013;DHT22;62113;45.624;11.700;2023-03-20T08:00:43;17.80;56.30
63013;DHT22;62113;45.624;11.700;2023-03-20T08:03:09;18.00;56.00
63013;DHT22;62113;45.624;11.700;2023-03-20T08:05:35;18.20;54.80
63013;DHT22;62113;45.624;11.700;2023-03-20T08:08:01;18.60;53.80
63013;DHT22;62113;45.624;11.700;2023-03-20T08:10:27;19.10;52.60
63013;DHT22;62113;45.624;11.700;2023-03-20T08:12:53;19.70;51.60
63013;DHT22;62113;45.624;11.700;2023-03-20T08:15:18;20.20;51.30
63013;DHT22;62113;45.624;11.700;2023-03-20T08:17:45;20.80;48.20
63013;DHT22;62113;45.624;11.700;2023-03-20T08:20:12;21.20;47.00
63013;DHT22;62113;45.624;11.700;2023-03-20T08:22:39;21.80;46.60
63013;DHT22;62113;45.624;11.700;2023-03-20T08:25:05;22.30;44.80
63013;DHT22;62113;45.624;11.700;2023-03-20T08:27:33;22.80;43.40
63013;DHT22;62113;45.624;11.700;2023-03-20T08:29:58;23.30;43.60
63013;DHT22;62113;45.624;11.700;2023-03-20T08:32:24;23.90;42.30
63013;DHT22;62113;45.624;11.700;2023-03-20T08:34:51;24.60;41.20
63013;DHT22;62113;45.624;11.700;2023-03-20T08:37:16;25.20;41.70
63013;DHT22;62113;45.624;11.700;2023-03-20T08:39:42;25.90;39.60
63013;DHT22;62113;45.624;11.700;2023-03-20T08:42:08;26.70;39.00
63013;DHT22;62113;45.624;11.700;2023-03-20T08:44:34;27.40;36.10
63013;DHT22;62113;45.624;11.700;2023-03-20T08:47:00;28.00;35.60
63013;DHT22;62113;45.624;11.700;2023-03-20T08:49:25;28.30;35.30
63013;DHT22;62113;45.624;11.700;2023-03-20T08:51:52;28.40;33.90
63013;DHT22;62113;45.624;11.700;2023-03-20T08:54:17;28.60;33.50
63013;DHT22;62113;45.624;11.700;2023-03-20T08:56:46;28.90;33.60
63013;DHT22;62113;45.624;11.700;2023-03-20T08:59:12;29.50;32.80
63013;DHT22;62113;45.624;11.700;2023-03-20T09:01:37;29.80;32.00
63013;DHT22;62113;45.624;11.700;2023-03-20T09:04:03;30.20;31.60
63013;DHT22;62113;45.624;11.700;2023-03-20T09:06:29;30.10;28.90
63013;DHT22;62113;45.624;11.700;2023-03-20T09:08:55;29.70;29.40
63013;DHT22;62113;45.624;11.700;2023-03-20T09:11:22;28.40;28.90
63013;DHT22;62113;45.624;11.700;2023-03-20T09:13:47;27.40;30.80
63013;DHT22;62113;45.624;11.700;2023-03-20T09:16:13;26.50;32.00
63013;DHT22;62113;45.624;11.700;2023-03-20T09:18:39;25.70;33.50
63013;DHT22;62113;45.624;11.700;2023-03-20T09:21:05;25.10;34.90
63013;DHT22;62113;45.624;11.700;2023-03-20T09:23:31;24.70;35.50
63013;DHT22;62113;45.624;11.700;2023-03-20T09:25:56;24.30;34.90
63013;DHT22;62113;45.624;11.700;2023-03-20T09:28:22;23.80;35.30
63013;DHT22;62113;45.624;11.700;2023-03-20T09:30:48;23.70;36.40
63013;DHT22;62113;45.624;11.700;2023-03-20T09:33:13;23.60;36.30
63013;DHT22;62113;45.624;11.700;2023-03-20T09:35:39;23.20;36.20
63013;DHT22;62113;45.624;11.700;2023-03-20T09:38:06;22.70;36.70
63013;DHT22;62113;45.624;11.700;2023-03-20T09:51:39;22.10;40.00
63013;DHT22;62113;45.624;11.700;2023-03-20T09:54:21;22.10;38.00
63013;DHT22;62113;45.624;11.700;2023-03-20T09:56:49;22.20;38.50
63013;DHT22;62113;45.624;11.700;2023-03-20T09:59:18;22.20;37.60
63013;DHT22;62113;45.624;11.700;2023-03-20T10:01:51;22.00;38.40
63013;DHT22;62113;45.624;11.700;2023-03-20T10:04:17;22.00;38.80
63013;DHT22;62113;45.624;11.700;2023-03-20T10:06:42;22.00;38.40
63013;DHT22;62113;45.624;11.700;2023-03-20T10:09:27;21.80;39.30
63013;DHT22;62113;45.624;11.700;2023-03-20T10:14:56;22.00;39.00
63013;DHT22;62113;45.624;11.700;2023-03-20T10:22:55;22.80;39.20
63013;DHT22;62113;45.624;11.700;2023-03-20T10:25:32;23.10;38.70
63013;DHT22;62113;45.624;11.700;2023-03-20T10:28:01;23.20;37.80
63013;DHT22;62113;45.624;11.700;2023-03-20T10:36:08;23.30;37.70
63013;DHT22;62113;45.624;11.700;2023-03-20T10:41:39;23.10;37.40
63013;DHT22;62113;45.624;11.700;2023-03-20T10:44:15;22.90;38.00
63013;DHT22;62113;45.624;11.700;2023-03-20T10:46:44;22.70;37.80
63013;DHT22;62113;45.624;11.700;2023-03-20T10:49:40;22.50;37.30
63013;DHT22;62113;45.624;11.700;2023-03-20T10:52:21;22.10;37.70
63013;DHT22;62113;45.624;11.700;2023-03-20T10:55:15;21.70;38.50
63013;DHT22;62113;45.624;11.700;2023-03-20T10:57:45;21.30;39.10
63013;DHT22;62113;45.624;11.700;2023-03-20T11:00:23;21.00;39.60
63013;DHT22;62113;45.624;11.700;2023-03-20T11:02:50;20.80;40.40
63013;DHT22;62113;45.624;11.700;2023-03-20T11:05:31;20.70;40.60
63013;DHT22;62113;45.624;11.700;2023-03-20T11:08:11;20.50;42.60
63013;DHT22;62113;45.624;11.700;2023-03-20T11:10:39;20.40;42.80
63013;DHT22;62113;45.624;11.700;2023-03-20T11:15:51;20.20;44.00
63013;DHT22;62113;45.624;11.700;2023-03-20T11:18:18;20.10;44.50
63013;DHT22;62113;45.624;11.700;2023-03-20T11:20:49;20.00;45.00
63013;DHT22;62113;45.624;11.700;2023-03-20T11:23:18;19.80;45.00
63013;DHT22;62113;45.624;11.700;2023-03-20T11:26:00;19.80;46.40
63013;DHT22;62113;45.624;11.700;2023-03-20T11:28:40;19.70;45.70
63013;DHT22;62113;45.624;11.700;2023-03-20T11:33:52;19.60;46.50
63013;DHT22;62113;45.624;11.700;2023-03-20T11:36:27;19.50;47.20
63013;DHT22;62113;45.624;11.700;2023-03-20T11:39:05;19.60;47.30
63013;DHT22;62113;45.624;11.700;2023-03-20T11:41:32;19.60;47.10
63013;DHT22;62113;45.624;11.700;2023-03-20T11:43:57;19.50;46.70
63013;DHT22;62113;45.624;11.700;2023-03-20T11:46:24;19.70;46.60
63013;DHT22;62113;45.624;11.700;2023-03-20T11:49:16;19.70;46.20
63013;DHT22;62113;45.624;11.700;2023-03-20T11:51:43;19.70;44.60
63013;DHT22;62113;45.624;11.700;2023-03-20T11:54:20;19.70;44.00
63013;DHT22;62113;45.624;11.700;2023-03-20T11:59:20;19.70;45.80
63013;DHT22;62113;45.624;11.700;2023-03-20T12:01:50;19.80;46.10
63013;DHT22;62113;45.624;11.700;2023-03-20T12:04:18;19.90;46.10
63013;DHT22;62113;45.624;11.700;2023-03-20T12:07:04;20.00;46.20
63013;DHT22;62113;45.624;11.700;2023-03-20T12:10:01;20.00;45.80
63013;DHT22;62113;45.624;11.700;2023-03-20T12:13:05;20.10;46.30
63013;DHT22;62113;45.624;11.700;2023-03-20T12:15:48;20.00;45.70
63013;DHT22;62113;45.624;11.700;2023-03-20T12:18:24;20.10;45.30
63013;DHT22;62113;45.624;11.700;2023-03-20T12:23:50;20.20;44.10
63013;DHT22;62113;45.624;11.700;2023-03-20T12:26:26;20.40;43.50
63013;DHT22;62113;45.624;11.700;2023-03-20T12:29:21;20.30;41.70
63013;DHT22;62113;45.624;11.700;2023-03-20T12:31:53;20.30;42.30
63013;DHT22;62113;45.624;11.700;2023-03-20T12:36:48;20.10;44.60
63013;DHT22;62113;45.624;11.700;2023-03-20T12:39:16;19.90;45.10
63013;DHT22;62113;45.624;11.700;2023-03-20T12:49:41;19.60;47.00
63013;DHT22;62113;45.624;11.700;2023-03-20T12:52:22;19.60;46.90
63013;DHT22;62113;45.624;11.700;2023-03-20T13:01:01;19.50;46.60
63013;DHT22;62113;45.624;11.700;2023-03-20T13:03:38;19.50;47.30
63013;DHT22;62113;45.624;11.700;2023-03-20T13:11:40;19.70;46.80
63013;DHT22;62113;45.624;11.700;2023-03-20T13:14:25;20.00;47.10
63013;DHT22;62113;45.624;11.700;2023-03-20T13:17:03;20.10;46.60
63013;DHT22;62113;45.624;11.700;2023-03-20T13:19:51;20.00;47.20
63013;DHT22;62113;45.624;11.700;2023-03-20T13:22:22;19.90;47.60
63013;DHT22;62113;45.624;11.700;2023-03-20T13:27:36;19.70;48.10
63013;DHT22;62113;45.624;11.700;2023-03-20T13:38:11;19.80;47.00
63013;DHT22;62113;45.624;11.700;2023-03-20T13:40:41;19.80;47.00
63013;DHT22;62113;45.624;11.700;2023-03-20T13:46:15;19.70;47.30
63013;DHT22;62113;45.624;11.700;2023-03-20T13:48:44;19.70;47.30
63013;DHT22;62113;45.624;11.700;2023-03-20T13:51:32;19.70;47.30
63013;DHT22;62113;45.624;11.700;2023-03-20T13:54:30;19.60;49.50
63013;DHT22;62113;45.624;11.700;2023-03-20T14:04:40;19.70;49.20
63013;DHT22;62113;45.624;11.700;2023-03-20T14:07:32;19.80;48.80
63013;DHT22;62113;45.624;11.700;2023-03-20T14:13:00;19.80;48.80
63013;DHT22;62113;45.624;11.700;2023-03-20T14:15:30;19.80;48.30
63013;DHT22;62113;45.624;11.700;2023-03-20T14:17:56;19.70;48.50
63013;DHT22;62113;45.624;11.700;2023-03-20T14:20:36;19.70;48.50
63013;DHT22;62113;45.624;11.700;2023-03-20T14:23:02;19.60;48.80
63013;DHT22;62113;45.624;11.700;2023-03-20T14:25:39;19.60;49.00
63013;DHT22;62113;45.624;11.700;2023-03-20T14:35:43;19.60;49.20
63013;DHT22;62113;45.624;11.700;2023-03-20T14:38:47;19.70;49.10
63013;DHT22;62113;45.624;11.700;2023-03-20T14:44:15;19.90;49.70
63013;DHT22;62113;45.624;11.700;2023-03-20T14:54:54;20.40;48.90
63013;DHT22;62113;45.624;11.700;2023-03-20T14:57:32;20.40;49.00
63013;DHT22;62113;45.624;11.700;2023-03-20T14:59:58;20.30;49.00
63013;DHT22;62113;45.624;11.700;2023-03-20T15:02:27;20.30;49.60
63013;DHT22;62113;45.624;11.700;2023-03-20T15:04:54;20.20;49.40
63013;DHT22;62113;45.624;11.700;2023-03-20T15:09:48;20.00;49.70
63013;DHT22;62113;45.624;11.700;2023-03-20T15:12:19;19.80;50.00
63013;DHT22;62113;45.624;11.700;2023-03-20T15:14:56;19.70;50.10
63013;DHT22;62113;45.624;11.700;2023-03-20T15:17:55;19.70;50.50
63013;DHT22;62113;45.624;11.700;2023-03-20T15:20:25;19.50;50.50
63013;DHT22;62113;45.624;11.700;2023-03-20T15:22:58;19.50;50.40
63013;DHT22;62113;45.624;11.700;2023-03-20T15:25:29;19.60;50.40
63013;DHT22;62113;45.624;11.700;2023-03-20T15:27:56;19.50;50.50
63013;DHT22;62113;45.624;11.700;2023-03-20T15:30:22;19.50;51.00
63013;DHT22;62113;45.624;11.700;2023-03-20T15:32:50;19.50;51.10
63013;DHT22;62113;45.624;11.700;2023-03-20T15:35:19;19.40;52.40
63013;DHT22;62113;45.624;11.700;2023-03-20T15:37:47;19.30;53.20
63013;DHT22;62113;45.624;11.700;2023-03-20T15:40:24;19.20;53.90
63013;DHT22;62113;45.624;11.700;2023-03-20T15:43:03;19.10;53.70
63013;DHT22;62113;45.624;11.700;2023-03-20T15:45:33;19.00;54.10
63013;DHT22;62113;45.624;11.700;2023-03-20T15:48:28;18.80;53.70
63013;DHT22;62113;45.624;11.700;2023-03-20T15:51:01;18.70;54.50
63013;DHT22;62113;45.624;11.700;2023-03-20T15:53:31;18.70;54.10
63013;DHT22;62113;45.624;11.700;2023-03-20T15:56:04;18.70;54.20
63013;DHT22;62113;45.624;11.700;2023-03-20T15:58:31;18.60;54.10
63013;DHT22;62113;45.624;11.700;2023-03-20T16:00:58;18.50;54.40
63013;DHT22;62113;45.624;11.700;2023-03-20T16:03:25;18.50;54.50
63013;DHT22;62113;45.624;11.700;2023-03-20T16:05:51;18.40;54.80
63013;DHT22;62113;45.624;11.700;2023-03-20T16:08:26;18.40;55.10
63013;DHT22;62113;45.624;11.700;2023-03-20T16:11:04;18.30;55.20
63013;DHT22;62113;45.624;11.700;2023-03-20T16:13:36;18.20;55.50
63013;DHT22;62113;45.624;11.700;2023-03-20T16:16:03;18.20;55.90
63013;DHT22;62113;45.624;11.700;2023-03-20T16:18:35;18.10;56.00
63013;DHT22;62113;45.624;11.700;2023-03-20T16:21:04;18.00;56.00
63013;DHT22;62113;45.624;11.700;2023-03-20T16:23:39;18.00;56.10
63013;DHT22;62113;45.624;11.700;2023-03-20T16:26:07;17.90;56.20
63013;DHT22;62113;45.624;11.700;2023-03-20T16:28:36;17.90;56.60
63013;DHT22;62113;45.624;11.700;2023-03-20T16:31:23;17.80;56.90
63013;DHT22;62113;45.624;11.700;2023-03-20T16:33:50;17.70;56.70
63013;DHT22;62113;45.624;11.700;2023-03-20T16:36:19;17.70;56.90
63013;DHT22;62113;45.624;11.700;2023-03-20T16:39:00;17.70;57.20
63013;DHT22;62113;45.624;11.700;2023-03-20T16:41:29;17.60;57.60
63013;DHT22;62113;45.624;11.700;2023-03-20T16:43:56;17.50;57.90
63013;DHT22;62113;45.624;11.700;2023-03-20T16:46:24;17.50;58.80
63013;DHT22;62113;45.624;11.700;2023-03-20T16:48:55;17.50;58.40
63013;DHT22;62113;45.624;11.700;2023-03-20T16:51:28;17.40;58.80
63013;DHT22;62113;45.624;11.700;2023-03-20T16:53:57;17.30;58.70
63013;DHT22;62113;45.624;11.700;2023-03-20T16:56:33;17.30;58.70
63013;DHT22;62113;45.624;11.700;2023-03-20T16:59:06;17.30;58.60
63013;DHT22;62113;45.624;11.700;2023-03-20T17:01:32;17.30;58.60
63013;DHT22;62113;45.624;11.700;2023-03-20T17:04:31;17.30;58.80
63013;DHT22;62113;45.624;11.700;2023-03-20T17:06:59;17.20;59.20
63013;DHT22;62113;45.624;11.700;2023-03-20T17:09:29;17.20;59.20
63013;DHT22;62113;45.624;11.700;2023-03-20T17:12:09;17.20;59.30
63013;DHT22;62113;45.624;11.700;2023-03-20T17:14:36;17.10;59.60
63013;DHT22;62113;45.624;11.700;2023-03-20T17:17:02;17.00;59.70
63013;DHT22;62113;45.624;11.700;2023-03-20T17:19:31;16.90;59.60
63013;DHT22;62113;45.624;11.700;2023-03-20T17:21:57;16.90;59.70
63013;DHT22;62113;45.624;11.700;2023-03-20T17:24:27;16.90;60.00
63013;DHT22;62113;45.624;11.700;2023-03-20T17:26:54;16.80;59.80
63013;DHT22;62113;45.624;11.700;2023-03-20T17:29:22;16.80;59.90
63013;DHT22;62113;45.624;11.700;2023-03-20T17:31:48;16.80;60.20
63013;DHT22;62113;45.624;11.700;2023-03-20T17:34:13;16.70;60.10
63013;DHT22;62113;45.624;11.700;2023-03-20T17:36:40;16.70;60.50
63013;DHT22;62113;45.624;11.700;2023-03-20T17:39:05;16.60;60.30
63013;DHT22;62113;45.624;11.700;2023-03-20T17:41:31;16.60;60.30
63013;DHT22;62113;45.624;11.700;2023-03-20T17:43:57;16.60;60.70
63013;DHT22;62113;45.624;11.700;2023-03-20T17:46:26;16.60;60.50
63013;DHT22;62113;45.624;11.700;2023-03-20T17:49:00;16.50;61.00
63013;DHT22;62113;45.624;11.700;2023-03-20T17:51:26;16.50;60.70
63013;DHT22;62113;45.624;11.700;2023-03-20T17:53:52;16.50;60.60
63013;DHT22;62113;45.624;11.700;2023-03-20T17:56:21;16.50;60.90
63013;DHT22;62113;45.624;11.700;2023-03-20T17:58:47;16.60;60.60
63013;DHT22;62113;45.624;11.700;2023-03-20T18:01:13;16.50;60.50
63013;DHT22;62113;45.624;11.700;2023-03-20T18:03:39;16.60;60.70